sensor_id;sensor_type;location;lat;lon;timestamp;pressure;altitude;pressure_sealevel;temperature;humidity
62942;BME280;49042;47.318;19.874;2022-07-06T00:02:55;100232.06;;;18.68;94.23
62942;BME280;49042;47.318;19.874;2022-07-06T00:05:57;100232.94;;;18.70;93.40
62942;BME280;49042;47.318;19.874;2022-07-06T00:08:59;100227.69;;;18.64;93.47
62942;BME280;49042;47.318;19.874;2022-07-06T00:12:01;100224.97;;;18.73;92.16
62942;BME280;49042;47.318;19.874;2022-07-06T00:15:03;100226.81;;;18.65;92.48
62942;BME280;49042;47.318;19.874;2022-07-06T00:18:05;100221.53;;;18.64;92.27
62942;BME280;49042;47.318;19.874;2022-07-06T00:21:07;100224.22;;;18.57;92.75
62942;BME280;49042;47.318;19.874;2022-07-06T00:24:09;100222.47;;;18.53;92.42
62942;BME280;49042;47.318;19.874;2022-07-06T00:27:10;100225.12;;;18.48;92.46
62942;BME280;49042;47.318;19.874;2022-07-06T00:30:12;100228.66;;;18.49;92.50
62942;BME280;49042;47.318;19.874;2022-07-06T00:33:14;100223.41;;;18.44;92.13
62942;BME280;49042;47.318;19.874;2022-07-06T00:36:16;100224.31;;;18.35;92.87
62942;BME280;49042;47.318;19.874;2022-07-06T00:39:18;100230.50;;;18.31;92.87
62942;BME280;49042;47.318;19.874;2022-07-06T00:42:21;100223.44;;;18.35;92.35
62942;BME280;49042;47.318;19.874;2022-07-06T00:45:23;100229.63;;;18.32;92.47
62942;BME280;49042;47.318;19.874;2022-07-06T00:48:24;100237.53;;;18.35;92.18
62942;BME280;49042;47.318;19.874;2022-07-06T00:51:31;100227.00;;;18.23;92.54
62942;BME280;49042;47.318;19.874;2022-07-06T00:54:34;100233.16;;;18.23;92.86
62942;BME280;49042;47.318;19.874;2022-07-06T00:57:38;100231.38;;;18.20;92.61
62942;BME280;49042;47.318;19.874;2022-07-06T01:00:40;100221.78;;;18.08;93.34
62942;BME280;49042;47.318;19.874;2022-07-06T01:03:46;100228.78;;;18.09;93.51
62942;BME280;49042;47.318;19.874;2022-07-06T01:06:48;100226.19;;;18.03;93.66
62942;BME280;49042;47.318;19.874;2022-07-06T01:09:50;100222.66;;;18.09;93.43
62942;BME280;49042;47.318;19.874;2022-07-06T01:12:52;100228.84;;;17.97;94.00
62942;BME280;49042;47.318;19.874;2022-07-06T01:15:55;100222.66;;;18.04;93.37
62942;BME280;49042;47.318;19.874;2022-07-06T01:18:56;100220.03;;;17.96;93.75
62942;BME280;49042;47.318;19.874;2022-07-06T01:21:58;100220.06;;;17.92;94.00
62942;BME280;49042;47.318;19.874;2022-07-06T01:25:01;100213.91;;;17.88;94.50
62942;BME280;49042;47.318;19.874;2022-07-06T01:28:03;100218.34;;;17.72;95.61
62942;BME280;49042;47.318;19.874;2022-07-06T01:31:05;100213.06;;;17.78;95.46
62942;BME280;49042;47.318;19.874;2022-07-06T01:34:09;100220.97;;;17.75;94.76
62942;BME280;49042;47.318;19.874;2022-07-06T01:37:11;100218.38;;;17.73;94.80
62942;BME280;49042;47.318;19.874;2022-07-06T01:40:13;100209.53;;;17.74;94.94
62942;BME280;49042;47.318;19.874;2022-07-06T01:43:14;100223.63;;;17.75;94.84
62942;BME280;49042;47.318;19.874;2022-07-06T01:46:17;100223.63;;;17.69;94.90
62942;BME280;49042;47.318;19.874;2022-07-06T01:49:20;100222.78;;;17.66;94.90
62942;BME280;49042;47.318;19.874;2022-07-06T01:52:21;100225.41;;;17.62;95.18
62942;BME280;49042;47.318;19.874;2022-07-06T01:55:23;100221.00;;;17.61;95.08
62942;BME280;49042;47.318;19.874;2022-07-06T01:58:25;100224.56;;;17.47;95.88
62942;BME280;49042;47.318;19.874;2022-07-06T02:01:27;100219.28;;;17.52;96.00
62942;BME280;49042;47.318;19.874;2022-07-06T02:04:29;100221.00;;;17.53;95.58
62942;BME280;49042;47.318;19.874;2022-07-06T02:07:31;100219.25;;;17.58;95.34
62942;BME280;49042;47.318;19.874;2022-07-06T02:10:33;100217.50;;;17.49;95.73
62942;BME280;49042;47.318;19.874;2022-07-06T02:13:35;100217.53;;;17.44;95.91
62942;BME280;49042;47.318;19.874;2022-07-06T02:16:37;100221.06;;;17.42;95.73
62942;BME280;49042;47.318;19.874;2022-07-06T02:19:38;100228.09;;;17.33;96.28
62942;BME280;49042;47.318;19.874;2022-07-06T02:22:40;100233.34;;;17.29;96.75
62942;BME280;49042;47.318;19.874;2022-07-06T02:25:42;100236.87;;;17.20;97.66
62942;BME280;49042;47.318;19.874;2022-07-06T02:28:44;100236.84;;;17.13;97.54
62942;BME280;49042;47.318;19.874;2022-07-06T02:31:47;100243.84;;;17.04;98.65
62942;BME280;49042;47.318;19.874;2022-07-06T02:34:49;100242.09;;;17.10;98.47
62942;BME280;49042;47.318;19.874;2022-07-06T02:37:51;100245.59;;;17.14;98.09
62942;BME280;49042;47.318;19.874;2022-07-06T02:40:52;100239.47;;;17.09;98.72
62942;BME280;49042;47.318;19.874;2022-07-06T02:43:54;100241.22;;;16.99;99.23
62942;BME280;49042;47.318;19.874;2022-07-06T02:46:56;100243.84;;;16.99;98.81
62942;BME280;49042;47.318;19.874;2022-07-06T02:49:58;100236.84;;;16.99;99.03
62942;BME280;49042;47.318;19.874;2022-07-06T02:53:00;100243.81;;;16.92;99.75
62942;BME280;49042;47.318;19.874;2022-07-06T02:56:03;100242.94;;;16.81;100.00
62942;BME280;49042;47.318;19.874;2022-07-06T02:59:05;100242.06;;;16.87;100.00
62942;BME280;49042;47.318;19.874;2022-07-06T03:02:14;100255.25;;;16.88;99.92
62942;BME280;49042;47.318;19.874;2022-07-06T03:05:16;100253.50;;;16.90;99.54
62942;BME280;49042;47.318;19.874;2022-07-06T03:08:17;100259.66;;;16.94;100.00
62942;BME280;49042;47.318;19.874;2022-07-06T03:11:19;100261.44;;;17.03;99.14
62942;BME280;49042;47.318;19.874;2022-07-06T03:14:21;100269.31;;;17.05;99.38
62942;BME280;49042;47.318;19.874;2022-07-06T03:17:23;100265.84;;;17.25;97.93
62942;BME280;49042;47.318;19.874;2022-07-06T03:20:25;100260.59;;;17.28;97.35
62942;BME280;49042;47.318;19.874;2022-07-06T03:23:27;100264.94;;;17.18;97.82
62942;BME280;49042;47.318;19.874;2022-07-06T03:26:29;100268.47;;;17.25;97.47
62942;BME280;49042;47.318;19.874;2022-07-06T03:29:31;100270.25;;;17.24;97.67
62942;BME280;49042;47.318;19.874;2022-07-06T03:32:32;100265.88;;;17.28;97.45
62942;BME280;49042;47.318;19.874;2022-07-06T03:35:34;100261.47;;;17.30;96.66
62942;BME280;49042;47.318;19.874;2022-07-06T03:38:36;100269.38;;;17.33;96.96
62942;BME280;49042;47.318;19.874;2022-07-06T03:41:38;100268.47;;;17.39;96.53
62942;BME280;49042;47.318;19.874;2022-07-06T03:44:40;100261.47;;;17.46;95.21
62942;BME280;49042;47.318;19.874;2022-07-06T03:47:42;100264.94;;;17.63;94.32
62942;BME280;49042;47.318;19.874;2022-07-06T03:50:43;100269.34;;;17.69;93.37
62942;BME280;49042;47.318;19.874;2022-07-06T03:53:45;100269.34;;;17.53;94.42
62942;BME280;49042;47.318;19.874;2022-07-06T03:56:47;100272.00;;;17.52;94.62
62942;BME280;49042;47.318;19.874;2022-07-06T03:59:49;100279.91;;;17.64;93.45
62942;BME280;49042;47.318;19.874;2022-07-06T04:02:50;100272.00;;;17.53;93.95
62942;BME280;49042;47.318;19.874;2022-07-06T04:05:53;100263.22;;;17.54;93.85
62942;BME280;49042;47.318;19.874;2022-07-06T04:08:55;100269.34;;;17.61;93.45
62942;BME280;49042;47.318;19.874;2022-07-06T04:11:56;100271.13;;;17.62;93.19
62942;BME280;49042;47.318;19.874;2022-07-06T04:14:58;100263.22;;;17.65;92.80
62942;BME280;49042;47.318;19.874;2022-07-06T04:18:00;100268.47;;;17.75;92.62
62942;BME280;49042;47.318;19.874;2022-07-06T04:21:02;100273.75;;;17.80;92.03
62942;BME280;49042;47.318;19.874;2022-07-06T04:24:04;100274.59;;;17.86;91.16
62942;BME280;49042;47.318;19.874;2022-07-06T04:27:06;100273.72;;;17.87;91.59
62942;BME280;49042;47.318;19.874;2022-07-06T04:30:09;100274.59;;;17.94;90.87
62942;BME280;49042;47.318;19.874;2022-07-06T04:33:11;100264.84;;;18.06;89.83
62942;BME280;49042;47.318;19.874;2022-07-06T04:36:12;100276.31;;;18.13;89.63
62942;BME280;49042;47.318;19.874;2022-07-06T04:39:14;100282.44;;;18.10;89.20
62942;BME280;49042;47.318;19.874;2022-07-06T04:42:16;100288.59;;;18.28;88.89
62942;BME280;49042;47.318;19.874;2022-07-06T04:45:18;100285.88;;;18.51;87.54
62942;BME280;49042;47.318;19.874;2022-07-06T04:48:19;100286.69;;;18.60;86.65
62942;BME280;49042;47.318;19.874;2022-07-06T04:51:22;100290.16;;;18.70;86.14
62942;BME280;49042;47.318;19.874;2022-07-06T04:54:23;100292.00;;;18.55;86.35
62942;BME280;49042;47.318;19.874;2022-07-06T04:57:25;100286.75;;;18.46;87.09
62942;BME280;49042;47.318;19.874;2022-07-06T05:00:27;100288.50;;;18.51;86.98
62942;BME280;49042;47.318;19.874;2022-07-06T05:03:29;100276.84;;;18.92;84.69
62942;BME280;49042;47.318;19.874;2022-07-06T05:06:31;100279.41;;;19.01;83.01
62942;BME280;49042;47.318;19.874;2022-07-06T05:09:33;100283.69;;;19.23;82.28
62942;BME280;49042;47.318;19.874;2022-07-06T05:12:35;100283.66;;;19.28;81.41
62942;BME280;49042;47.318;19.874;2022-07-06T05:15:37;100288.97;;;19.24;82.05
62942;BME280;49042;47.318;19.874;2022-07-06T05:18:39;100300.22;;;19.52;80.72
62942;BME280;49042;47.318;19.874;2022-07-06T05:21:41;100293.12;;;19.55;80.72
62942;BME280;49042;47.318;19.874;2022-07-06T05:24:42;100309.62;;;19.84;79.87
62942;BME280;49042;47.318;19.874;2022-07-06T05:27:44;100317.59;;;19.81;79.51
62942;BME280;49042;47.318;19.874;2022-07-06T05:30:46;100314.87;;;19.89;79.67
62942;BME280;49042;47.318;19.874;2022-07-06T05:33:48;100321.94;;;19.87;79.38
62942;BME280;49042;47.318;19.874;2022-07-06T05:36:50;100326.44;;;19.78;79.42
62942;BME280;49042;47.318;19.874;2022-07-06T05:39:51;100335.31;;;19.73;79.84
62942;BME280;49042;47.318;19.874;2022-07-06T05:42:53;100339.72;;;19.72;80.44
62942;BME280;49042;47.318;19.874;2022-07-06T05:45:55;100337.94;;;19.73;80.40
62942;BME280;49042;47.318;19.874;2022-07-06T05:48:57;100339.81;;;19.63;80.50
62942;BME280;49042;47.318;19.874;2022-07-06T05:52:18;100339.66;;;19.82;80.46
62942;BME280;49042;47.318;19.874;2022-07-06T05:55:20;100339.78;;;19.67;80.99
62942;BME280;49042;47.318;19.874;2022-07-06T05:58:22;100344.88;;;19.88;80.59
62942;BME280;49042;47.318;19.874;2022-07-06T06:01:26;100352.00;;;19.81;81.53
62942;BME280;49042;47.318;19.874;2022-07-06T06:04:28;100355.41;;;19.96;82.41
62942;BME280;49042;47.318;19.874;2022-07-06T06:07:30;100367.00;;;19.79;83.52
62942;BME280;49042;47.318;19.874;2022-07-06T06:10:32;100365.19;;;19.84;83.83
62942;BME280;49042;47.318;19.874;2022-07-06T06:13:34;100362.50;;;19.92;82.28
62942;BME280;49042;47.318;19.874;2022-07-06T06:16:35;100359.66;;;20.11;81.83
62942;BME280;49042;47.318;19.874;2022-07-06T06:19:38;100374.69;;;20.10;81.08
62942;BME280;49042;47.318;19.874;2022-07-06T06:22:54;100371.12;;;20.16;81.33
62942;BME280;49042;47.318;19.874;2022-07-06T06:25:56;100384.88;;;20.53;80.06
62942;BME280;49042;47.318;19.874;2022-07-06T06:28:58;100380.78;;;20.20;80.06
62942;BME280;49042;47.318;19.874;2022-07-06T06:32:00;100385.66;;;20.60;78.04
62942;BME280;49042;47.318;19.874;2022-07-06T06:35:03;100390.53;;;20.93;77.97
62942;BME280;49042;47.318;19.874;2022-07-06T06:38:05;100397.06;;;20.65;76.10
62942;BME280;49042;47.318;19.874;2022-07-06T06:41:07;100393.94;;;21.04;75.11
62942;BME280;49042;47.318;19.874;2022-07-06T06:44:09;100403.34;;;21.29;73.82
62942;BME280;49042;47.318;19.874;2022-07-06T06:47:11;100389.28;;;21.81;71.24
62942;BME280;49042;47.318;19.874;2022-07-06T06:50:13;100399.63;;;22.00;70.78
62942;BME280;49042;47.318;19.874;2022-07-06T06:53:14;100398.56;;;22.10;69.96
62942;BME280;49042;47.318;19.874;2022-07-06T06:56:16;100394.44;;;22.41;68.62
62942;BME280;49042;47.318;19.874;2022-07-06T06:59:18;100389.44;;;22.72;67.75
62942;BME280;49042;47.318;19.874;2022-07-06T07:02:20;100401.69;;;22.81;65.86
62942;BME280;49042;47.318;19.874;2022-07-06T07:05:22;100400.75;;;23.23;64.94
62942;BME280;49042;47.318;19.874;2022-07-06T07:08:24;100407.53;;;23.38;63.87
62942;BME280;49042;47.318;19.874;2022-07-06T07:11:26;100412.50;;;23.14;65.13
62942;BME280;49042;47.318;19.874;2022-07-06T07:14:28;100404.75;;;23.03;65.47
62942;BME280;49042;47.318;19.874;2022-07-06T07:17:30;100413.66;;;23.42;64.63
62942;BME280;49042;47.318;19.874;2022-07-06T07:20:32;100413.41;;;23.91;62.72
62942;BME280;49042;47.318;19.874;2022-07-06T07:23:35;100416.22;;;23.85;62.01
62942;BME280;49042;47.318;19.874;2022-07-06T07:26:36;100419.72;;;23.87;62.12
62942;BME280;49042;47.318;19.874;2022-07-06T07:29:39;100413.91;;;24.06;59.19
62942;BME280;49042;47.318;19.874;2022-07-06T07:32:40;100417.31;;;24.78;57.07
62942;BME280;49042;47.318;19.874;2022-07-06T07:35:42;100427.28;;;25.02;56.76
62942;BME280;49042;47.318;19.874;2022-07-06T07:38:44;100433.97;;;24.87;56.49
62942;BME280;49042;47.318;19.874;2022-07-06T07:41:46;100433.97;;;24.87;55.03
62942;BME280;49042;47.318;19.874;2022-07-06T07:44:47;100431.78;;;25.01;54.74
62942;BME280;49042;47.318;19.874;2022-07-06T07:47:49;100436.13;;;25.04;54.13
62942;BME280;49042;47.318;19.874;2022-07-06T07:50:51;100433.44;;;24.74;55.25
62942;BME280;49042;47.318;19.874;2022-07-06T07:53:53;100432.00;;;24.94;54.93
62942;BME280;49042;47.318;19.874;2022-07-06T07:56:55;100437.72;;;25.11;56.19
62942;BME280;49042;47.318;19.874;2022-07-06T07:59:56;100449.28;;;25.70;53.42
62942;BME280;49042;47.318;19.874;2022-07-06T08:02:58;100436.56;;;25.49;55.04
62942;BME280;49042;47.318;19.874;2022-07-06T08:06:00;100449.34;;;25.68;52.49
62942;BME280;49042;47.318;19.874;2022-07-06T08:09:02;100452.31;;;25.30;54.17
62942;BME280;49042;47.318;19.874;2022-07-06T08:12:06;100445.44;;;25.21;54.72
62942;BME280;49042;47.318;19.874;2022-07-06T08:15:08;100443.25;;;25.34;54.42
62942;BME280;49042;47.318;19.874;2022-07-06T08:18:10;100453.91;;;25.35;55.35
62942;BME280;49042;47.318;19.874;2022-07-06T08:21:12;100453.16;;;25.59;53.66
62942;BME280;49042;47.318;19.874;2022-07-06T08:24:29;100451.13;;;25.67;53.35
62942;BME280;49042;47.318;19.874;2022-07-06T08:27:31;100454.72;;;25.66;52.15
62942;BME280;49042;47.318;19.874;2022-07-06T08:30:32;100462.66;;;25.10;53.10
62942;BME280;49042;47.318;19.874;2022-07-06T08:33:36;100464.69;;;25.00;53.31
62942;BME280;49042;47.318;19.874;2022-07-06T08:36:38;100459.38;;;24.68;54.73
62942;BME280;49042;47.318;19.874;2022-07-06T08:39:40;100469.75;;;24.78;54.67
62942;BME280;49042;47.318;19.874;2022-07-06T08:42:43;100474.66;;;24.94;54.09
62942;BME280;49042;47.318;19.874;2022-07-06T08:45:49;100478.81;;;25.04;53.54
62942;BME280;49042;47.318;19.874;2022-07-06T08:48:51;100472.97;;;24.91;56.22
62942;BME280;49042;47.318;19.874;2022-07-06T08:51:53;100469.84;;;25.08;52.62
62942;BME280;49042;47.318;19.874;2022-07-06T08:54:56;100474.84;;;26.06;52.01
62942;BME280;49042;47.318;19.874;2022-07-06T08:57:58;100464.63;;;27.43;48.84
62942;BME280;49042;47.318;19.874;2022-07-06T09:01:00;100472.69;;;27.19;48.33
62942;BME280;49042;47.318;19.874;2022-07-06T09:04:05;100464.50;;;27.23;47.82
62942;BME280;49042;47.318;19.874;2022-07-06T09:07:08;100462.31;;;28.85;43.32
62942;BME280;49042;47.318;19.874;2022-07-06T09:10:10;100464.84;;;28.48;42.98
62942;BME280;49042;47.318;19.874;2022-07-06T09:13:13;100461.38;;;29.05;42.37
62942;BME280;49042;47.318;19.874;2022-07-06T09:16:15;100469.03;;;27.90;44.75
62942;BME280;49042;47.318;19.874;2022-07-06T09:19:38;100469.81;;;29.17;42.23
62942;BME280;49042;47.318;19.874;2022-07-06T09:22:40;100453.72;;;29.36;42.20
62942;BME280;49042;47.318;19.874;2022-07-06T09:25:47;100456.69;;;29.30;40.99
62942;BME280;49042;47.318;19.874;2022-07-06T09:28:50;100457.41;;;28.12;43.95
62942;BME280;49042;47.318;19.874;2022-07-06T09:32:03;100464.13;;;27.33;45.40
62942;BME280;49042;47.318;19.874;2022-07-06T09:35:06;100468.00;;;26.24;48.27
62942;BME280;49042;47.318;19.874;2022-07-06T09:38:11;100458.13;;;26.26;48.48
62942;BME280;49042;47.318;19.874;2022-07-06T09:41:13;100464.25;;;26.81;47.16
62942;BME280;49042;47.318;19.874;2022-07-06T09:44:28;100466.38;;;27.44;46.77
62942;BME280;49042;47.318;19.874;2022-07-06T09:47:31;100470.03;;;27.19;47.14
62942;BME280;49042;47.318;19.874;2022-07-06T09:50:43;100465.38;;;26.50;47.37
62942;BME280;49042;47.318;19.874;2022-07-06T09:53:50;100455.59;;;27.23;47.60
62942;BME280;49042;47.318;19.874;2022-07-06T09:56:53;100455.56;;;28.95;41.22
62942;BME280;49042;47.318;19.874;2022-07-06T09:59:58;100461.25;;;30.56;38.45
62942;BME280;49042;47.318;19.874;2022-07-06T10:03:00;100465.03;;;32.45;33.76
62942;BME280;49042;47.318;19.874;2022-07-06T10:06:02;100467.53;;;34.05;31.12
62942;BME280;49042;47.318;19.874;2022-07-06T10:09:09;100459.00;;;37.74;26.12
62942;BME280;49042;47.318;19.874;2022-07-06T10:12:16;100470.34;;;38.12;25.70
62942;BME280;49042;47.318;19.874;2022-07-06T10:15:19;100461.72;;;34.77;29.29
62942;BME280;49042;47.318;19.874;2022-07-06T10:18:22;100460.66;;;34.40;29.18
62942;BME280;49042;47.318;19.874;2022-07-06T10:21:24;100459.69;;;32.75;32.77
62942;BME280;49042;47.318;19.874;2022-07-06T10:24:28;100462.28;;;32.62;34.15
62942;BME280;49042;47.318;19.874;2022-07-06T10:27:32;100462.25;;;32.32;33.44
62942;BME280;49042;47.318;19.874;2022-07-06T10:30:34;100458.44;;;33.23;32.20
62942;BME280;49042;47.318;19.874;2022-07-06T10:33:40;100445.97;;;34.96;29.47
62942;BME280;49042;47.318;19.874;2022-07-06T10:36:52;100450.34;;;34.19;29.23
62942;BME280;49042;47.318;19.874;2022-07-06T10:39:56;100454.34;;;34.79;29.05
62942;BME280;49042;47.318;19.874;2022-07-06T10:43:16;100449.94;;;35.90;28.12
62942;BME280;49042;47.318;19.874;2022-07-06T10:46:18;100447.81;;;35.08;28.18
62942;BME280;49042;47.318;19.874;2022-07-06T10:49:25;100452.03;;;32.23;32.41
62942;BME280;49042;47.318;19.874;2022-07-06T10:52:57;100450.50;;;30.56;36.00
62942;BME280;49042;47.318;19.874;2022-07-06T10:56:02;100454.84;;;28.92;38.75
62942;BME280;49042;47.318;19.874;2022-07-06T10:59:13;100452.59;;;29.40;39.24
62942;BME280;49042;47.318;19.874;2022-07-06T11:02:19;100459.22;;;28.54;41.13
62942;BME280;49042;47.318;19.874;2022-07-06T11:05:40;100444.88;;;28.74;41.88
62942;BME280;49042;47.318;19.874;2022-07-06T11:09:10;100434.81;;;29.57;39.37
62942;BME280;49042;47.318;19.874;2022-07-06T11:12:18;100444.37;;;29.26;37.76
62942;BME280;49042;47.318;19.874;2022-07-06T11:15:47;100448.59;;;29.49;38.32
62942;BME280;49042;47.318;19.874;2022-07-06T11:19:00;100440.81;;;29.25;38.97
62942;BME280;49042;47.318;19.874;2022-07-06T11:22:07;100450.00;;;29.19;38.87
62942;BME280;49042;47.318;19.874;2022-07-06T11:25:10;100440.78;;;28.86;38.55
62942;BME280;49042;47.318;19.874;2022-07-06T11:28:11;100435.75;;;28.98;39.27
62942;BME280;49042;47.318;19.874;2022-07-06T11:31:15;100432.88;;;28.83;39.16
62942;BME280;49042;47.318;19.874;2022-07-06T11:34:25;100437.56;;;28.59;40.83
62942;BME280;49042;47.318;19.874;2022-07-06T11:37:27;100440.19;;;28.99;39.50
62942;BME280;49042;47.318;19.874;2022-07-06T11:40:29;100429.87;;;29.09;38.73
62942;BME280;49042;47.318;19.874;2022-07-06T11:43:31;100428.62;;;29.92;38.43
62942;BME280;49042;47.318;19.874;2022-07-06T11:46:34;100429.06;;;30.19;36.73
62942;BME280;49042;47.318;19.874;2022-07-06T11:49:37;100426.75;;;30.29;37.02
62942;BME280;49042;47.318;19.874;2022-07-06T11:52:39;100430.37;;;29.74;37.46
62942;BME280;49042;47.318;19.874;2022-07-06T11:55:41;100419.16;;;30.37;37.64
62942;BME280;49042;47.318;19.874;2022-07-06T11:58:44;100408.09;;;30.43;36.85
62942;BME280;49042;47.318;19.874;2022-07-06T12:01:48;100414.88;;;30.51;35.30
62942;BME280;49042;47.318;19.874;2022-07-06T12:04:50;100400.56;;;30.32;35.52
62942;BME280;49042;47.318;19.874;2022-07-06T12:08:06;100411.59;;;30.28;37.11
62942;BME280;49042;47.318;19.874;2022-07-06T12:11:09;100417.38;;;29.84;39.10
62942;BME280;49042;47.318;19.874;2022-07-06T12:14:16;100411.88;;;29.50;38.46
62942;BME280;49042;47.318;19.874;2022-07-06T12:17:18;100417.41;;;29.27;37.48
62942;BME280;49042;47.318;19.874;2022-07-06T12:20:19;100420.75;;;28.94;36.94
62942;BME280;49042;47.318;19.874;2022-07-06T12:23:21;100411.38;;;29.79;34.47
62942;BME280;49042;47.318;19.874;2022-07-06T12:26:26;100409.25;;;30.55;33.50
62942;BME280;49042;47.318;19.874;2022-07-06T12:29:29;100404.53;;;31.26;32.03
62942;BME280;49042;47.318;19.874;2022-07-06T12:32:31;100400.38;;;31.83;31.20
62942;BME280;49042;47.318;19.874;2022-07-06T12:35:34;100394.47;;;32.96;29.43
62942;BME280;49042;47.318;19.874;2022-07-06T12:38:43;100386.84;;;33.30;30.08
62942;BME280;49042;47.318;19.874;2022-07-06T12:44:50;100385.91;;;36.47;26.41
62942;BME280;49042;47.318;19.874;2022-07-06T12:48:03;100378.56;;;36.82;24.31
62942;BME280;49042;47.318;19.874;2022-07-06T12:51:06;100382.69;;;39.51;21.72
62942;BME280;49042;47.318;19.874;2022-07-06T12:54:15;100377.97;;;38.52;22.81
62942;BME280;49042;47.318;19.874;2022-07-06T13:00:18;100382.53;;;35.11;26.69
62942;BME280;49042;47.318;19.874;2022-07-06T13:03:21;100381.94;;;35.68;26.13
62942;BME280;49042;47.318;19.874;2022-07-06T13:06:30;100381.78;;;37.32;24.15
62942;BME280;49042;47.318;19.874;2022-07-06T13:09:33;100403.59;;;40.10;20.02
62942;BME280;49042;47.318;19.874;2022-07-06T13:12:35;100393.94;;;42.01;19.87
62942;BME280;49042;47.318;19.874;2022-07-06T13:15:41;100398.38;;;40.55;20.72
62942;BME280;49042;47.318;19.874;2022-07-06T13:18:43;100393.81;;;40.74;20.37
62942;BME280;49042;47.318;19.874;2022-07-06T13:21:45;100392.78;;;40.75;20.11
62942;BME280;49042;47.318;19.874;2022-07-06T13:24:47;100392.91;;;42.37;19.28
62942;BME280;49042;47.318;19.874;2022-07-06T13:27:48;100389.72;;;42.51;18.74
62942;BME280;49042;47.318;19.874;2022-07-06T13:30:50;100402.69;;;42.05;18.71
62942;BME280;49042;47.318;19.874;2022-07-06T13:33:52;100395.28;;;42.05;18.85
62942;BME280;49042;47.318;19.874;2022-07-06T13:36:54;100397.88;;;39.34;21.93
62942;BME280;49042;47.318;19.874;2022-07-06T13:39:55;100388.78;;;35.50;26.07
62942;BME280;49042;47.318;19.874;2022-07-06T13:42:57;100386.28;;;32.68;30.48
62942;BME280;49042;47.318;19.874;2022-07-06T13:45:59;100386.66;;;34.66;27.58
62942;BME280;49042;47.318;19.874;2022-07-06T13:49:02;100373.97;;;37.38;24.73
62942;BME280;49042;47.318;19.874;2022-07-06T13:52:04;100378.34;;;38.98;22.32
62942;BME280;49042;47.318;19.874;2022-07-06T13:55:07;100378.50;;;38.45;23.08
62942;BME280;49042;47.318;19.874;2022-07-06T13:58:09;100384.44;;;39.42;21.51
62942;BME280;49042;47.318;19.874;2022-07-06T14:01:11;100378.63;;;40.90;19.69
62942;BME280;49042;47.318;19.874;2022-07-06T14:04:21;100382.81;;;39.69;21.24
62942;BME280;49042;47.318;19.874;2022-07-06T14:07:22;100376.53;;;39.29;21.60
62942;BME280;49042;47.318;19.874;2022-07-06T14:10:24;100368.56;;;38.76;22.16
62942;BME280;49042;47.318;19.874;2022-07-06T14:13:26;100374.91;;;39.26;21.01
62942;BME280;49042;47.318;19.874;2022-07-06T14:16:28;100361.59;;;38.93;22.02
62942;BME280;49042;47.318;19.874;2022-07-06T14:19:30;100357.66;;;38.66;21.85
62942;BME280;49042;47.318;19.874;2022-07-06T14:22:32;100360.81;;;37.98;22.15
62942;BME280;49042;47.318;19.874;2022-07-06T14:25:34;100362.09;;;37.06;23.32
62942;BME280;49042;47.318;19.874;2022-07-06T14:28:36;100350.19;;;34.33;27.57
62942;BME280;49042;47.318;19.874;2022-07-06T14:31:38;100355.84;;;33.90;28.93
62942;BME280;49042;47.318;19.874;2022-07-06T14:34:40;100359.94;;;31.83;31.99
62942;BME280;49042;47.318;19.874;2022-07-06T14:37:41;100369.75;;;30.04;35.10
62942;BME280;49042;47.318;19.874;2022-07-06T14:40:43;100370.66;;;29.87;36.00
62942;BME280;49042;47.318;19.874;2022-07-06T14:43:45;100370.25;;;29.02;36.69
62942;BME280;49042;47.318;19.874;2022-07-06T14:46:48;100369.81;;;28.53;37.63
62942;BME280;49042;47.318;19.874;2022-07-06T14:49:50;100368.31;;;28.46;39.33
62942;BME280;49042;47.318;19.874;2022-07-06T14:52:54;100374.88;;;28.19;39.38
62942;BME280;49042;47.318;19.874;2022-07-06T14:55:57;100371.44;;;27.74;40.25
62942;BME280;49042;47.318;19.874;2022-07-06T14:58:58;100380.13;;;27.58;41.17
62942;BME280;49042;47.318;19.874;2022-07-06T15:02:20;100403.25;;;27.38;40.89
62942;BME280;49042;47.318;19.874;2022-07-06T15:05:22;100421.44;;;27.52;41.53
62942;BME280;49042;47.318;19.874;2022-07-06T15:08:24;100426.47;;;27.37;41.42
62942;BME280;49042;47.318;19.874;2022-07-06T15:11:26;100434.56;;;27.36;40.48
62942;BME280;49042;47.318;19.874;2022-07-06T15:14:28;100430.69;;;27.43;39.88
62942;BME280;49042;47.318;19.874;2022-07-06T15:17:30;100423.06;;;26.61;41.68
62942;BME280;49042;47.318;19.874;2022-07-06T15:20:33;100415.63;;;26.44;42.81
62942;BME280;49042;47.318;19.874;2022-07-06T15:23:35;100427.47;;;26.11;44.78
62942;BME280;49042;47.318;19.874;2022-07-06T15:26:37;100421.25;;;26.11;44.10
62942;BME280;49042;47.318;19.874;2022-07-06T15:29:39;100422.50;;;26.00;45.77
62942;BME280;49042;47.318;19.874;2022-07-06T15:32:41;100428.22;;;25.89;46.96
62942;BME280;49042;47.318;19.874;2022-07-06T15:35:42;100426.31;;;25.93;45.59
62942;BME280;49042;47.318;19.874;2022-07-06T15:38:45;100432.47;;;25.66;46.37
62942;BME280;49042;47.318;19.874;2022-07-06T15:41:47;100430.13;;;25.56;46.76
62942;BME280;49042;47.318;19.874;2022-07-06T15:44:49;100422.22;;;25.53;46.58
62942;BME280;49042;47.318;19.874;2022-07-06T15:47:53;100428.75;;;25.72;46.33
62942;BME280;49042;47.318;19.874;2022-07-06T15:50:55;100424.97;;;25.79;45.67
62942;BME280;49042;47.318;19.874;2022-07-06T15:53:57;100414.88;;;25.87;44.66